USTS Kennedy — KVMU — position and weather

sailwx.info

Track history (hours):
 
Tides and Currents Weather Stations Pressure Air Temp Water Temp Dewpoint Dewpoint Depression Visibility Wind Speed Wind Dir Waves Ship Positions

USTS Kennedy (United States)

Training ship of Massachusetts Maritime Academy. Ex Cape Bon, ex Velma Lykes, ex Enterprise.

Ship's website: http://www.maritime.edu/

Owner: Massachusetts Maritime Academy, Buzzards Bay, MA. More information available from US FCC via Universal Licensing System and Coast Guard Vessel Documentation Center.

Last reported at 2019-Aug-30 12:13 UTC. Time now 2019-Sep-17 10:43 UTC.
Position N 41°44' W 070°38'.
Warning: this ship's position is 17 days out of date.

Type: Ship. MMSI: 338919000.

Date/timePositionNaut miles runAvg speedWind from/ knotsBaromVisibWave heightAir tempDewpointWater temp
2019-Aug-30 12:13N 41°44' W 070°38'0 0.0
2019-Aug-30 11:58N 41°44' W 070°38'0 0.0
2019-Aug-30 11:28N 41°44' W 070°38'0 0.0
2019-Aug-30 10:58N 41°44' W 070°38'0 0.0
2019-Aug-30 10:28N 41°44' W 070°38'0 0.0
2019-Aug-30 09:58N 41°44' W 070°38'0 0.0
2019-Aug-30 09:28N 41°44' W 070°38'0 0.0
2019-Aug-30 08:58N 41°44' W 070°38'0 0.0
2019-Aug-30 08:28N 41°44' W 070°38'0 0.0
2019-Aug-30 07:58N 41°44' W 070°38'0 0.0
2019-Aug-30 07:28N 41°44' W 070°38'0 0.0
2019-Aug-30 06:58N 41°44' W 070°38'0 0.0
2019-Aug-30 06:28N 41°44' W 070°38'0 0.0
2019-Aug-30 05:58N 41°44' W 070°38'0 0.0
2019-Aug-30 05:28N 41°44' W 070°38'0 0.0
2019-Aug-30 04:58N 41°44' W 070°38'0 0.0
2019-Aug-30 04:28N 41°44' W 070°38'0 0.0
2019-Aug-30 03:58N 41°44' W 070°38'0 0.0
2019-Aug-30 03:28N 41°44' W 070°38'0 0.0
2019-Aug-30 02:58N 41°44' W 070°38'0 0.0
2019-Aug-30 02:28N 41°44' W 070°38'0 0.0
2019-Aug-30 01:58N 41°44' W 070°38'0 0.0
2019-Aug-30 01:28N 41°44' W 070°38'0 0.0
2019-Aug-30 00:58N 41°44' W 070°38'0 0.0
2019-Aug-30 00:28N 41°44' W 070°38'0 0.0
2019-Aug-29 23:55N 41°44' W 070°38'0 0.0
2019-Aug-29 23:25N 41°44' W 070°38'0 0.0
2019-Aug-29 22:55N 41°44' W 070°38'0 0.0
2019-Aug-29 22:25N 41°44' W 070°38'0 0.0
2019-Aug-29 21:49N 41°44' W 070°38'0 0.0
2019-Aug-29 21:25N 41°44' W 070°38'0 0.0
2019-Aug-29 20:55N 41°44' W 070°38'0 0.0
2019-Aug-29 20:25N 41°44' W 070°38'0 0.0
2019-Aug-29 19:55N 41°44' W 070°38'0 0.0
2019-Aug-29 19:25N 41°44' W 070°38'0 0.0
2019-Aug-29 18:55N 41°44' W 070°38'0 0.0
2019-Aug-29 18:25N 41°44' W 070°38'0 0.0
2019-Aug-29 17:55N 41°44' W 070°38'0 0.0
2019-Aug-29 17:25N 41°44' W 070°38'0 0.0
2019-Aug-29 16:55N 41°44' W 070°38'0 0.0
2019-Aug-29 16:25N 41°44' W 070°38'0 0.0
2019-Aug-29 15:55N 41°44' W 070°38'0 0.0
2019-Aug-29 15:28N 41°44' W 070°38'0 0.0
2019-Aug-29 14:58N 41°44' W 070°38'0 0.0
2019-Aug-29 14:25N 41°44' W 070°38'0 0.0
2019-Aug-29 13:58N 41°44' W 070°38'0 0.0
2019-Aug-29 13:26N 41°44' W 070°38'1 1.6
2019-Aug-29 12:58N 41°45' W 070°37'8 8.5
2019-Aug-29 11:59N 41°48' W 070°26'710.3
2019-Aug-29 11:18N 41°45' W 070°35'310.5
2019-Aug-29 11:00N 41°43' W 070°38'611.9
2019-Aug-29 10:30N 41°38' W 070°42'4 8.3
2019-Aug-29 10:00N 41°34' W 070°44'4 7.9
2019-Aug-29 09:30N 41°32' W 070°48'5 9.0
2019-Aug-29 09:00N 41°29' W 070°53'610.1
2019-Aug-29 08:26N 41°27' W 071°00'38 8.0
2019-Aug-29 03:38N 41°05' W 071°41'1 9.7
2019-Aug-29 03:29N 41°06' W 071°42'4 8.3
2019-Aug-29 03:00N 41°09' W 071°44'510.3
2019-Aug-29 02:30N 41°11' W 071°51'5 9.2
2019-Aug-29 02:00N 41°12' W 071°56'4 8.7
2019-Aug-29 01:30N 41°14' W 072°02'4 7.2
2019-Aug-29 01:00N 41°15' W 072°07'4 7.5
2019-Aug-29 00:30N 41°14' W 072°11'4 7.4
2019-Aug-29 00:00N 41°13' W 072°16'4 7.4
2019-Aug-28 23:30N 41°12' W 072°21'4 7.6
2019-Aug-28 23:00N 41°11' W 072°26'4 7.6
2019-Aug-28 22:30N 41°10' W 072°31'4 7.9
2019-Aug-28 21:59N 41°09' W 072°36'52 7.7
2019-Aug-28 15:10N 40°53' W 073°42'510.2
2019-Aug-28 14:37N 40°49' W 073°47'2 4.4
2019-Aug-28 14:15N 40°48' W 073°49'310.5
2019-Aug-28 14:00N 40°48' W 073°52'4 7.3
2019-Aug-28 13:25N 40°46' W 073°57'3 7.7
2019-Aug-28 13:00N 40°43' W 073°58'5 9.2
2019-Aug-28 12:30N 40°40' W 074°03'510.1
2019-Aug-28 12:00N 40°35' W 074°02'611.4
2019-Aug-28 11:30N 40°30' W 073°57'612.1
2019-Aug-28 11:00N 40°27' W 073°50'4 8.2
2019-Aug-28 10:30N 40°26' W 073°45'4 7.7
2019-Aug-28 10:00N 40°26' W 073°40'4 7.2
2019-Aug-28 09:30N 40°27' W 073°36'4 6.7
2019-Aug-28 08:54N 40°28' W 073°31'3 6.7
2019-Aug-28 08:25N 40°28' W 073°26'2 5.6
2019-Aug-28 07:58N 40°29' W 073°23'15 5.1
2019-Aug-28 05:01N 40°29' W 073°03'5 6.7
2019-Aug-28 04:21N 40°29' W 072°57'4 6.5
2019-Aug-28 03:40N 40°30' W 072°52'1 6.3
2019-Aug-28 03:29N 40°30' W 072°50'4 6.2
2019-Aug-28 02:49N 40°30' W 072°45'5 6.2
2019-Aug-28 01:58N 40°32' W 072°38'3 6.0
2019-Aug-28 01:23N 40°34' W 072°34'7 5.9
2019-Aug-28 00:08N 40°37' W 072°25'1 5.9
2019-Aug-28 00:00N 40°37' W 072°24'3 5.8
2019-Aug-27 23:26N 40°39' W 072°21'15 5.9
2019-Aug-27 20:56N 40°45' W 072°03'60 9.3
2019-Aug-27 14:26N 41°25' W 071°03'512.7
2019-Aug-27 14:00N 41°28' W 070°57'613.0
2019-Aug-27 13:30N 41°31' W 070°50'510.2
2019-Aug-27 13:01N 41°34' W 070°44'4 7.1
2019-Aug-27 12:31N 41°37' W 070°42'611.1
2019-Aug-27 12:01N 41°42' W 070°39'2 4.7
2019-Aug-27 11:31N 41°44' W 070°38'0 0.0
2019-Aug-27 10:59N 41°44' W 070°38'0 0.0
2019-Aug-27 10:29N 41°44' W 070°38'0 0.0
2019-Aug-27 09:58N 41°44' W 070°38'0 0.0
2019-Aug-27 09:29N 41°44' W 070°38'0 0.0
2019-Aug-27 08:59N 41°44' W 070°38'0 0.0
2019-Aug-27 08:26N 41°44' W 070°38'0 0.0
2019-Aug-27 07:58N 41°44' W 070°38'0 0.0
2019-Aug-27 07:29N 41°44' W 070°38'0 0.0
2019-Aug-27 06:58N 41°44' W 070°38'0 0.0
2019-Aug-27 06:28N 41°44' W 070°38'0 0.0
2019-Aug-27 05:59N 41°44' W 070°38'0 0.0
2019-Aug-27 05:29N 41°44' W 070°38'0 0.0
2019-Aug-27 04:58N 41°44' W 070°38'0 0.0
2019-Aug-27 04:28N 41°44' W 070°38'0 0.0
2019-Aug-27 03:58N 41°44' W 070°38'0 0.0
2019-Aug-27 03:28N 41°44' W 070°38'0 0.0
2019-Aug-27 02:58N 41°44' W 070°38'0 0.0
2019-Aug-27 02:29N 41°44' W 070°38'0 0.0
2019-Aug-27 01:59N 41°44' W 070°38'0 0.0
2019-Aug-27 01:28N 41°44' W 070°38'0 0.0
2019-Aug-27 00:58N 41°44' W 070°38'0 0.0
2019-Aug-27 00:29N 41°44' W 070°38'0 0.0
2019-Aug-26 23:58N 41°44' W 070°38'0 0.0
2019-Aug-26 23:28N 41°44' W 070°38'0 0.0
2019-Aug-26 22:58N 41°44' W 070°38'0 0.0
2019-Aug-26 22:28N 41°44' W 070°38'0 0.0
2019-Aug-26 21:58N 41°44' W 070°38'0 0.0
2019-Aug-26 21:28N 41°44' W 070°38'0 0.0
2019-Aug-26 20:58N 41°44' W 070°38'0 0.0
2019-Aug-26 20:28N 41°44' W 070°38'0 0.0
2019-Aug-26 19:58N 41°44' W 070°38'0 0.0
2019-Aug-26 19:28N 41°44' W 070°38'0 0.0
2019-Aug-26 18:58N 41°44' W 070°38'0 0.0
2019-Aug-26 18:28N 41°44' W 070°38'0 0.0
2019-Aug-26 17:58N 41°44' W 070°38'0 0.0
2019-Aug-26 17:28N 41°44' W 070°38'0 0.0
2019-Aug-26 16:58N 41°44' W 070°38'0 0.0
2019-Aug-26 16:28N 41°44' W 070°38'0 0.0
2019-Aug-26 15:58N 41°44' W 070°38'0 0.0
2019-Aug-26 15:28N 41°44' W 070°38'0 0.0
2019-Aug-26 14:58N 41°44' W 070°38'0 0.0
2019-Aug-26 14:28N 41°44' W 070°38'0 0.0
2019-Aug-26 13:58N 41°44' W 070°38'0 0.0
2019-Aug-26 13:28N 41°44' W 070°38'0 0.0
2019-Aug-26 12:58N 41°44' W 070°38'0 0.0
2019-Aug-26 12:28N 41°44' W 070°38'0 0.0
2019-Aug-26 11:58N 41°44' W 070°38'0 0.0
2019-Aug-26 11:28N 41°44' W 070°38'0 0.0
2019-Aug-26 10:58N 41°44' W 070°38'0 0.0
2019-Aug-26 10:28N 41°44' W 070°38'0 0.0
2019-Aug-26 09:58N 41°44' W 070°38'0 0.0
2019-Aug-26 09:28N 41°44' W 070°38'0 0.0
2019-Aug-26 08:58N 41°44' W 070°38'0 0.0
2019-Aug-26 08:28N 41°44' W 070°38'0 0.0
2019-Aug-26 07:58N 41°44' W 070°38'0 0.0
2019-Aug-26 07:28N 41°44' W 070°38'0 0.0
2019-Aug-26 06:58N 41°44' W 070°38'0 0.0
2019-Aug-26 06:28N 41°44' W 070°38'0 0.0
2019-Aug-26 05:58N 41°44' W 070°38'0 0.0
2019-Aug-26 05:28N 41°44' W 070°38'0 0.0
2019-Aug-26 04:58N 41°44' W 070°38'0 0.0
2019-Aug-26 04:28N 41°44' W 070°38'0 0.0
2019-Aug-26 03:58N 41°44' W 070°38'0 0.0
2019-Aug-26 03:28N 41°44' W 070°38'0 0.0
2019-Aug-26 02:58N 41°44' W 070°38'0 0.0
2019-Aug-26 02:28N 41°44' W 070°38'0 0.0
2019-Aug-26 01:58N 41°44' W 070°38'0 0.0
2019-Aug-26 01:28N 41°44' W 070°38'0 0.0
2019-Aug-26 00:58N 41°44' W 070°38'0 0.0
2019-Aug-26 00:28N 41°44' W 070°38'0 0.0
2019-Aug-25 23:58N 41°44' W 070°38'0 0.0
2019-Aug-25 23:28N 41°44' W 070°38'0 0.0
2019-Aug-25 22:58N 41°44' W 070°38'0 0.0
2019-Aug-25 22:28N 41°44' W 070°38'0 0.0
2019-Aug-25 21:58N 41°44' W 070°38'0 0.0
2019-Aug-25 21:28N 41°44' W 070°38'0 0.0
2019-Aug-25 20:58N 41°44' W 070°38'0 0.0
2019-Aug-25 20:28N 41°44' W 070°38'0 0.0
2019-Aug-25 19:58N 41°44' W 070°38'0 0.0
2019-Aug-25 19:28N 41°44' W 070°38'0 0.0
2019-Aug-25 18:58N 41°44' W 070°38'0 0.0
2019-Aug-25 18:28N 41°44' W 070°38'0 0.0
2019-Aug-25 17:58N 41°44' W 070°38'0 0.0
2019-Aug-25 17:28N 41°44' W 070°38'0 0.0
2019-Aug-25 16:58N 41°44' W 070°38'0 0.0
2019-Aug-25 16:28N 41°44' W 070°38'0 0.0
2019-Aug-25 15:58N 41°44' W 070°38'0 0.0
2019-Aug-25 15:28N 41°44' W 070°38'0 0.0
2019-Aug-25 14:58N 41°44' W 070°38'0 0.0
2019-Aug-25 14:28N 41°44' W 070°38'0 0.0
2019-Aug-25 13:58N 41°44' W 070°38'0 0.0
2019-Aug-25 13:28N 41°44' W 070°38'0 0.0
2019-Aug-25 12:58N 41°44' W 070°38'0 0.0
2019-Aug-25 12:28N 41°44' W 070°38'0 0.0
2019-Aug-25 11:58N 41°44' W 070°38'0 0.0
2019-Aug-25 11:28N 41°44' W 070°38'0 0.0
2019-Aug-25 10:58N 41°44' W 070°38'0 0.0
2019-Aug-25 10:28N 41°44' W 070°38'0 0.0
2019-Aug-25 09:58N 41°44' W 070°38'0 0.0
2019-Aug-25 09:28N 41°44' W 070°38'0 0.0
2019-Aug-25 08:58N 41°44' W 070°38'0 0.0
2019-Aug-25 08:28N 41°44' W 070°38'0 0.0
2019-Aug-25 07:58N 41°44' W 070°38'0 0.0
2019-Aug-25 07:28N 41°44' W 070°38'0 0.0
2019-Aug-25 06:58N 41°44' W 070°38'0 0.0
2019-Aug-25 06:28N 41°44' W 070°38'0 0.0
2019-Aug-25 05:58N 41°44' W 070°38'0 0.0
2019-Aug-25 05:28N 41°44' W 070°38'0 0.0
2019-Aug-25 04:58N 41°44' W 070°38'0 0.0
2019-Aug-25 04:28N 41°44' W 070°38'0 0.0
2019-Aug-25 03:58N 41°44' W 070°38'0 0.0
2019-Aug-25 03:28N 41°44' W 070°38'0 0.0
2019-Aug-25 02:58N 41°44' W 070°38'0 0.0
2019-Aug-25 02:28N 41°44' W 070°38'0 0.0
2019-Aug-25 01:58N 41°44' W 070°38'0 0.0
2019-Aug-25 01:28N 41°44' W 070°38'0 0.0
2019-Aug-25 00:58N 41°44' W 070°38'0 0.0
2019-Aug-25 00:28N 41°44' W 070°38'0 0.0
2019-Aug-24 23:58N 41°44' W 070°38'0 0.0
2019-Aug-24 23:28N 41°44' W 070°38'0 0.0
2019-Aug-24 22:58N 41°44' W 070°38'0 0.0
2019-Aug-24 22:28N 41°44' W 070°38'0 0.0
2019-Aug-24 21:58N 41°44' W 070°38'0 0.0
2019-Aug-24 21:28N 41°44' W 070°38'0 0.0
2019-Aug-24 20:58N 41°44' W 070°38'0 0.0
2019-Aug-24 20:28N 41°44' W 070°38'0 0.0
2019-Aug-24 19:58N 41°44' W 070°38'0 0.0
2019-Aug-24 19:28N 41°44' W 070°38'0 0.0
2019-Aug-24 18:58N 41°44' W 070°38'0 0.0
2019-Aug-24 18:28N 41°44' W 070°38'0 0.0
2019-Aug-24 17:58N 41°44' W 070°38'0 0.0
2019-Aug-24 17:28N 41°44' W 070°38'0 0.0
2019-Aug-24 16:58N 41°44' W 070°38'0 0.0
2019-Aug-24 16:28N 41°44' W 070°38'0 0.0
2019-Aug-24 15:58N 41°44' W 070°38'0 0.0
2019-Aug-24 15:22N 41°44' W 070°38'0 0.0
2019-Aug-24 14:58N 41°44' W 070°38'0 0.0
2019-Aug-24 14:28N 41°44' W 070°38'0 0.0
2019-Aug-24 13:58N 41°44' W 070°38'0 0.0
2019-Aug-24 13:28N 41°44' W 070°38'0 0.0
2019-Aug-24 12:58N 41°44' W 070°38'0 0.0
2019-Aug-24 12:28N 41°44' W 070°38'0 0.0
2019-Aug-24 11:58N 41°44' W 070°38'0 0.0
2019-Aug-24 11:28N 41°44' W 070°38'0 0.0
2019-Aug-24 10:58N 41°44' W 070°38'0 0.0
2019-Aug-24 10:28N 41°44' W 070°38'0 0.0
2019-Aug-24 09:58N 41°44' W 070°38'0 0.0
2019-Aug-24 09:28N 41°44' W 070°38'0 0.0
2019-Aug-24 08:58N 41°44' W 070°38'0 0.0
2019-Aug-24 08:28N 41°44' W 070°38'0 0.0
2019-Aug-24 07:58N 41°44' W 070°38'0 0.0
2019-Aug-24 07:28N 41°44' W 070°38'0 0.0
2019-Aug-24 06:58N 41°44' W 070°38'0 0.0
2019-Aug-24 06:28N 41°44' W 070°38'0 0.0
2019-Aug-24 05:58N 41°44' W 070°38'0 0.0
2019-Aug-24 05:28N 41°44' W 070°38'0 0.0
2019-Aug-24 04:58N 41°44' W 070°38'0 0.0
2019-Aug-24 04:28N 41°44' W 070°38'0 0.0
2019-Aug-24 03:58N 41°44' W 070°38'0 0.0
2019-Aug-24 03:28N 41°44' W 070°38'0 0.0
2019-Aug-24 02:58N 41°44' W 070°38'0 0.0
2019-Aug-24 02:28N 41°44' W 070°38'0 0.0
2019-Aug-24 01:58N 41°44' W 070°38'0 0.0
2019-Aug-24 01:28N 41°44' W 070°38'0 0.0
2019-Aug-24 00:58N 41°44' W 070°38'0 0.0
2019-Aug-24 00:28N 41°44' W 070°38'0 0.0
2019-Aug-23 23:58N 41°44' W 070°38'0 0.0
2019-Aug-23 23:28N 41°44' W 070°38'0 0.0
2019-Aug-23 22:58N 41°44' W 070°38'0 0.0
2019-Aug-23 22:28N 41°44' W 070°38'0 0.0
2019-Aug-23 21:58N 41°44' W 070°38'0 0.0
2019-Aug-23 21:28N 41°44' W 070°38'0 0.0
2019-Aug-23 20:58N 41°44' W 070°38'0 0.0
2019-Aug-23 20:28N 41°44' W 070°38'0 0.0
2019-Aug-23 19:58N 41°44' W 070°38'0 0.0
2019-Aug-23 19:28N 41°44' W 070°38'0 0.0
2019-Aug-23 18:58N 41°44' W 070°38'0 0.0
2019-Aug-23 18:28N 41°44' W 070°38'0 0.0
2019-Aug-23 17:55N 41°44' W 070°38'0 0.0
2019-Aug-23 17:28N 41°44' W 070°38'0 0.0
2019-Aug-23 16:58N 41°44' W 070°38'0 0.0
2019-Aug-23 16:28N 41°44' W 070°38'0 0.0
2019-Aug-23 15:58N 41°44' W 070°38'0 0.0
2019-Aug-23 15:28N 41°44' W 070°38'0 0.0
2019-Aug-23 14:58N 41°44' W 070°38'0 0.0
2019-Aug-23 14:28N 41°44' W 070°38'0 0.0
2019-Aug-23 13:58N 41°44' W 070°38'0 0.0
2019-Aug-23 13:28N 41°44' W 070°38'0 0.0
2019-Aug-23 12:58N 41°44' W 070°38'0 0.0
2019-Aug-23 12:28N 41°44' W 070°38'0 0.0
2019-Aug-23 11:58N 41°44' W 070°38'0 0.0
2019-Aug-23 11:28N 41°44' W 070°38'0 0.0
2019-Aug-23 10:58N 41°44' W 070°38'0 0.0
2019-Aug-23 10:28N 41°44' W 070°38'0 0.0
2019-Aug-23 09:58N 41°44' W 070°38'0 0.0
2019-Aug-23 09:28N 41°44' W 070°38'0 0.0
2019-Aug-23 08:58N 41°44' W 070°38'0 0.0
2019-Aug-23 08:28N 41°44' W 070°38'0 0.0
2019-Aug-23 07:58N 41°44' W 070°38'0 0.0
2019-Aug-23 07:28N 41°44' W 070°38'0 0.0
2019-Aug-23 06:58N 41°44' W 070°38'0 0.0
2019-Aug-23 06:28N 41°44' W 070°38'0 0.0
2019-Aug-23 05:58N 41°44' W 070°38'0 0.0
2019-Aug-23 05:28N 41°44' W 070°38'0 0.0
2019-Aug-23 04:58N 41°44' W 070°38'0 0.0
2019-Aug-23 04:28N 41°44' W 070°38'0 0.0
2019-Aug-23 03:58N 41°44' W 070°38'0 0.0
2019-Aug-23 03:28N 41°44' W 070°38'0 0.0
2019-Aug-23 02:58N 41°44' W 070°38'0 0.0
2019-Aug-23 02:28N 41°44' W 070°38'0 0.0
2019-Aug-23 01:58N 41°44' W 070°38'0 0.0
2019-Aug-23 01:28N 41°44' W 070°38'0 0.0
2019-Aug-23 00:58N 41°44' W 070°38'0 0.0
2019-Aug-23 00:28N 41°44' W 070°38'0 0.0
2019-Aug-22 23:58N 41°44' W 070°38'0 0.0
2019-Aug-22 23:28N 41°44' W 070°38'0 0.0
2019-Aug-22 22:58N 41°44' W 070°38'0 0.0
2019-Aug-22 22:28N 41°44' W 070°38'0 0.0
2019-Aug-22 21:58N 41°44' W 070°38'0 0.0
2019-Aug-22 21:28N 41°44' W 070°38'0 0.0
2019-Aug-22 20:58N 41°44' W 070°38'0 0.0
2019-Aug-22 20:28N 41°44' W 070°38'0 0.0
2019-Aug-22 19:58N 41°44' W 070°38'0 0.0
2019-Aug-22 19:28N 41°44' W 070°38'0 0.0
2019-Aug-22 18:58N 41°44' W 070°38'0 0.0
2019-Aug-22 18:28N 41°44' W 070°38'0 0.0
2019-Aug-22 17:58N 41°44' W 070°38'0 0.0
2019-Aug-22 17:28N 41°44' W 070°38'0 0.0
2019-Aug-22 16:58N 41°44' W 070°38'0 0.0
2019-Aug-22 16:28N 41°44' W 070°38'0 0.0
2019-Aug-22 15:58N 41°44' W 070°38'0 0.0
2019-Aug-22 15:28N 41°44' W 070°38'0 0.0
2019-Aug-22 14:58N 41°44' W 070°38'0 0.0
2019-Aug-22 14:28N 41°44' W 070°38'0 0.0
2019-Aug-22 13:58N 41°44' W 070°38'0 0.0
2019-Aug-22 13:28N 41°44' W 070°38'0 0.0
2019-Aug-22 12:58N 41°44' W 070°38'0 0.0
2019-Aug-22 12:28N 41°44' W 070°38'0 0.0
2019-Aug-22 11:58N 41°44' W 070°38'0 0.0
2019-Aug-22 11:28N 41°44' W 070°38'0 0.0
2019-Aug-22 10:58N 41°44' W 070°38'0 0.0
2019-Aug-22 10:28N 41°44' W 070°38'0 0.0
2019-Aug-22 09:58N 41°44' W 070°38'0 0.0
2019-Aug-22 09:28N 41°44' W 070°38'0 0.0
2019-Aug-22 08:58N 41°44' W 070°38'0 0.0
2019-Aug-22 08:28N 41°44' W 070°38'0 0.0
2019-Aug-22 07:58N 41°44' W 070°38'0 0.0
2019-Aug-22 07:28N 41°44' W 070°38'0 0.0
2019-Aug-22 06:58N 41°44' W 070°38'0 0.0
2019-Aug-22 06:28N 41°44' W 070°38'0 0.0
2019-Aug-22 05:58N 41°44' W 070°38'0 0.0
2019-Aug-22 05:28N 41°44' W 070°38'0 0.0
2019-Aug-22 04:58N 41°44' W 070°38'0 0.0
2019-Aug-22 04:28N 41°44' W 070°38'0 0.0
2019-Aug-22 03:58N 41°44' W 070°38'0 0.0
2019-Aug-22 03:28N 41°44' W 070°38'0 0.0
2019-Aug-22 02:58N 41°44' W 070°38'0 0.0
2019-Aug-22 02:28N 41°44' W 070°38'0 0.0
2019-Aug-22 01:58N 41°44' W 070°38'0 0.0
2019-Aug-22 01:28N 41°44' W 070°38'0 0.0
2019-Aug-22 00:58N 41°44' W 070°38'0 0.0
2019-Aug-22 00:28N 41°44' W 070°38'0 0.0
2019-Aug-21 23:58N 41°44' W 070°38'0 0.0
2019-Aug-21 23:28N 41°44' W 070°38'0 0.0
2019-Aug-21 22:58N 41°44' W 070°38'0 0.0
2019-Aug-21 22:28N 41°44' W 070°38'0 0.0
2019-Aug-21 21:58N 41°44' W 070°38'0 0.0
2019-Aug-21 21:28N 41°44' W 070°38'0 0.0
2019-Aug-21 20:58N 41°44' W 070°38'0 0.0
2019-Aug-21 20:28N 41°44' W 070°38'0 0.0
2019-Aug-21 19:58N 41°44' W 070°38'0 0.0
2019-Aug-21 19:22N 41°44' W 070°38'0 0.0
2019-Aug-21 18:58N 41°44' W 070°38'0 0.0
2019-Aug-21 18:28N 41°44' W 070°38'0 0.0
2019-Aug-21 17:58N 41°44' W 070°38'0 0.0
2019-Aug-21 17:28N 41°44' W 070°38'0 0.0
2019-Aug-21 16:52N 41°44' W 070°38'0 0.0
2019-Aug-21 16:28N 41°44' W 070°38'0 0.0
2019-Aug-21 15:58N 41°44' W 070°38'0 0.0
2019-Aug-21 15:28N 41°44' W 070°38'0 0.0
2019-Aug-21 14:55N 41°44' W 070°38'0 0.0
2019-Aug-21 14:28N 41°44' W 070°38'0 0.0
2019-Aug-21 13:58N 41°44' W 070°38'0 0.0
2019-Aug-21 13:28N 41°44' W 070°38'0 0.0
2019-Aug-21 12:55N 41°44' W 070°38'0 0.0
2019-Aug-21 12:28N 41°44' W 070°38'0 0.0
2019-Aug-21 11:58N 41°44' W 070°38'0 0.0
2019-Aug-21 11:28N 41°44' W 070°38'0 0.0
2019-Aug-21 10:58N 41°44' W 070°38'0 0.0
2019-Aug-21 10:28N 41°44' W 070°38'0 0.0
2019-Aug-21 09:58N 41°44' W 070°38'0 0.0
2019-Aug-21 09:28N 41°44' W 070°38'0 0.0
2019-Aug-21 08:55N 41°44' W 070°38'0 0.0
2019-Aug-21 08:28N 41°44' W 070°38'0 0.0
2019-Aug-21 07:58N 41°44' W 070°38'0 0.0
2019-Aug-21 07:28N 41°44' W 070°38'0 0.0
2019-Aug-21 06:58N 41°44' W 070°38'0 0.0
2019-Aug-21 06:28N 41°44' W 070°38'0 0.0
2019-Aug-21 05:58N 41°44' W 070°38'0 0.0
2019-Aug-21 05:28N 41°44' W 070°38'0 0.0
2019-Aug-21 04:58N 41°44' W 070°38'0 0.0
2019-Aug-21 04:28N 41°44' W 070°38'0 0.0
2019-Aug-21 03:58N 41°44' W 070°38'0 0.0
2019-Aug-21 03:28N 41°44' W 070°38'0 0.0
2019-Aug-21 02:58N 41°44' W 070°38'0 0.0
2019-Aug-21 02:28N 41°44' W 070°38'0 0.0
2019-Aug-21 01:58N 41°44' W 070°38'0 0.0
2019-Aug-21 01:28N 41°44' W 070°38'0 0.0
2019-Aug-21 00:58N 41°44' W 070°38'0 0.0
2019-Aug-21 00:28N 41°44' W 070°38'0 0.0
2019-Aug-20 23:58N 41°44' W 070°38'0 0.0
2019-Aug-20 23:28N 41°44' W 070°38'0 0.0
2019-Aug-20 22:58N 41°44' W 070°38'0 0.0
2019-Aug-20 22:28N 41°44' W 070°38'0 0.0
2019-Aug-20 21:58N 41°44' W 070°38'0 0.0
2019-Aug-20 21:28N 41°44' W 070°38'0 0.0
2019-Aug-20 20:58N 41°44' W 070°38'0 0.0
2019-Aug-20 20:28N 41°44' W 070°38'0 0.0
2019-Aug-20 19:52N 41°44' W 070°38'0 0.0
2019-Aug-20 19:28N 41°44' W 070°38'0 0.0
2019-Aug-20 18:58N 41°44' W 070°38'0 0.0
2019-Aug-20 18:28N 41°44' W 070°38'0 0.0
2019-Aug-20 17:58N 41°44' W 070°38'0 0.0
2019-Aug-20 17:28N 41°44' W 070°38'0 0.0
2019-Aug-20 16:58N 41°44' W 070°38'0 0.0
2019-Aug-20 16:28N 41°44' W 070°38'0 0.0
2019-Aug-20 15:58N 41°44' W 070°38'0 0.0
2019-Aug-20 15:28N 41°44' W 070°38'0 0.0
2019-Aug-20 14:58N 41°44' W 070°38'0 0.0
2019-Aug-20 14:28N 41°44' W 070°38'0 0.0
2019-Aug-20 13:58N 41°44' W 070°38'0 0.0
2019-Aug-20 13:28N 41°44' W 070°38'0 0.0
2019-Aug-20 12:58N 41°44' W 070°38'0 0.0
2019-Aug-20 12:28N 41°44' W 070°38'  
Track history (hours):
 
Tides and Currents Weather Stations Pressure Air Temp Water Temp Dewpoint Dewpoint Depression Visibility Wind Speed Wind Dir Waves Ship Positions

USTS Kennedy (United States)

Training ship of Massachusetts Maritime Academy. Ex Cape Bon, ex Velma Lykes, ex Enterprise.

Ship's website: http://www.maritime.edu/

Owner: Massachusetts Maritime Academy, Buzzards Bay, MA. More information available from US FCC via Universal Licensing System and Coast Guard Vessel Documentation Center.

Last reported at 2019-Aug-30 12:13 UTC. Time now 2019-Sep-17 10:43 UTC.
Position N 41°44' W 070°38'.
Warning: this ship's position is 17 days out of date.

Type: Ship. MMSI: 338919000.

Date/timePositionNaut miles runAvg speedWind from/ knotsBaromVisibWave heightAir tempDewpointWater temp
2019-Aug-30 12:13N 41°44' W 070°38'0 0.0
2019-Aug-30 11:58N 41°44' W 070°38'0 0.0
2019-Aug-30 11:28N 41°44' W 070°38'0 0.0
2019-Aug-30 10:58N 41°44' W 070°38'0 0.0
2019-Aug-30 10:28N 41°44' W 070°38'0 0.0
2019-Aug-30 09:58N 41°44' W 070°38'0 0.0
2019-Aug-30 09:28N 41°44' W 070°38'0 0.0
2019-Aug-30 08:58N 41°44' W 070°38'0 0.0
2019-Aug-30 08:28N 41°44' W 070°38'0 0.0
2019-Aug-30 07:58N 41°44' W 070°38'0 0.0
2019-Aug-30 07:28N 41°44' W 070°38'0 0.0
2019-Aug-30 06:58N 41°44' W 070°38'0 0.0
2019-Aug-30 06:28N 41°44' W 070°38'0 0.0
2019-Aug-30 05:58N 41°44' W 070°38'0 0.0
2019-Aug-30 05:28N 41°44' W 070°38'0 0.0
2019-Aug-30 04:58N 41°44' W 070°38'0 0.0
2019-Aug-30 04:28N 41°44' W 070°38'0 0.0
2019-Aug-30 03:58N 41°44' W 070°38'0 0.0
2019-Aug-30 03:28N 41°44' W 070°38'0 0.0
2019-Aug-30 02:58N 41°44' W 070°38'0 0.0
2019-Aug-30 02:28N 41°44' W 070°38'0 0.0
2019-Aug-30 01:58N 41°44' W 070°38'0 0.0
2019-Aug-30 01:28N 41°44' W 070°38'0 0.0
2019-Aug-30 00:58N 41°44' W 070°38'0 0.0
2019-Aug-30 00:28N 41°44' W 070°38'0 0.0
2019-Aug-29 23:55N 41°44' W 070°38'0 0.0
2019-Aug-29 23:25N 41°44' W 070°38'0 0.0
2019-Aug-29 22:55N 41°44' W 070°38'0 0.0
2019-Aug-29 22:25N 41°44' W 070°38'0 0.0
2019-Aug-29 21:49N 41°44' W 070°38'0 0.0
2019-Aug-29 21:25N 41°44' W 070°38'0 0.0
2019-Aug-29 20:55N 41°44' W 070°38'0 0.0
2019-Aug-29 20:25N 41°44' W 070°38'0 0.0
2019-Aug-29 19:55N 41°44' W 070°38'0 0.0
2019-Aug-29 19:25N 41°44' W 070°38'0 0.0
2019-Aug-29 18:55N 41°44' W 070°38'0 0.0
2019-Aug-29 18:25N 41°44' W 070°38'0 0.0
2019-Aug-29 17:55N 41°44' W 070°38'0 0.0
2019-Aug-29 17:25N 41°44' W 070°38'0 0.0
2019-Aug-29 16:55N 41°44' W 070°38'0 0.0
2019-Aug-29 16:25N 41°44' W 070°38'0 0.0
2019-Aug-29 15:55N 41°44' W 070°38'0 0.0
2019-Aug-29 15:28N 41°44' W 070°38'0 0.0
2019-Aug-29 14:58N 41°44' W 070°38'0 0.0
2019-Aug-29 14:25N 41°44' W 070°38'0 0.0
2019-Aug-29 13:58N 41°44' W 070°38'0 0.0
2019-Aug-29 13:26N 41°44' W 070°38'1 1.6
2019-Aug-29 12:58N 41°45' W 070°37'8 8.5
2019-Aug-29 11:59N 41°48' W 070°26'710.3
2019-Aug-29 11:18N 41°45' W 070°35'310.5
2019-Aug-29 11:00N 41°43' W 070°38'611.9
2019-Aug-29 10:30N 41°38' W 070°42'4 8.3
2019-Aug-29 10:00N 41°34' W 070°44'4 7.9
2019-Aug-29 09:30N 41°32' W 070°48'5 9.0
2019-Aug-29 09:00N 41°29' W 070°53'610.1
2019-Aug-29 08:26N 41°27' W 071°00'38 8.0
2019-Aug-29 03:38N 41°05' W 071°41'1 9.7
2019-Aug-29 03:29N 41°06' W 071°42'4 8.3
2019-Aug-29 03:00N 41°09' W 071°44'510.3
2019-Aug-29 02:30N 41°11' W 071°51'5 9.2
2019-Aug-29 02:00N 41°12' W 071°56'4 8.7
2019-Aug-29 01:30N 41°14' W 072°02'4 7.2
2019-Aug-29 01:00N 41°15' W 072°07'4 7.5
2019-Aug-29 00:30N 41°14' W 072°11'4 7.4
2019-Aug-29 00:00N 41°13' W 072°16'4 7.4
2019-Aug-28 23:30N 41°12' W 072°21'4 7.6
2019-Aug-28 23:00N 41°11' W 072°26'4 7.6
2019-Aug-28 22:30N 41°10' W 072°31'4 7.9
2019-Aug-28 21:59N 41°09' W 072°36'52 7.7
2019-Aug-28 15:10N 40°53' W 073°42'510.2
2019-Aug-28 14:37N 40°49' W 073°47'2 4.4
2019-Aug-28 14:15N 40°48' W 073°49'310.5
2019-Aug-28 14:00N 40°48' W 073°52'4 7.3
2019-Aug-28 13:25N 40°46' W 073°57'3 7.7
2019-Aug-28 13:00N 40°43' W 073°58'5 9.2
2019-Aug-28 12:30N 40°40' W 074°03'510.1
2019-Aug-28 12:00N 40°35' W 074°02'611.4
2019-Aug-28 11:30N 40°30' W 073°57'612.1
2019-Aug-28 11:00N 40°27' W 073°50'4 8.2
2019-Aug-28 10:30N 40°26' W 073°45'4 7.7
2019-Aug-28 10:00N 40°26' W 073°40'4 7.2
2019-Aug-28 09:30N 40°27' W 073°36'4 6.7
2019-Aug-28 08:54N 40°28' W 073°31'3 6.7
2019-Aug-28 08:25N 40°28' W 073°26'2 5.6
2019-Aug-28 07:58N 40°29' W 073°23'15 5.1
2019-Aug-28 05:01N 40°29' W 073°03'5 6.7
2019-Aug-28 04:21N 40°29' W 072°57'4 6.5
2019-Aug-28 03:40N 40°30' W 072°52'1 6.3
2019-Aug-28 03:29N 40°30' W 072°50'4 6.2
2019-Aug-28 02:49N 40°30' W 072°45'5 6.2
2019-Aug-28 01:58N 40°32' W 072°38'3 6.0
2019-Aug-28 01:23N 40°34' W 072°34'7 5.9
2019-Aug-28 00:08N 40°37' W 072°25'1 5.9
2019-Aug-28 00:00N 40°37' W 072°24'3 5.8
2019-Aug-27 23:26N 40°39' W 072°21'15 5.9
2019-Aug-27 20:56N 40°45' W 072°03'60 9.3
2019-Aug-27 14:26N 41°25' W 071°03'512.7
2019-Aug-27 14:00N 41°28' W 070°57'613.0
2019-Aug-27 13:30N 41°31' W 070°50'510.2
2019-Aug-27 13:01N 41°34' W 070°44'4 7.1
2019-Aug-27 12:31N 41°37' W 070°42'611.1
2019-Aug-27 12:01N 41°42' W 070°39'2 4.7
2019-Aug-27 11:31N 41°44' W 070°38'0 0.0
2019-Aug-27 10:59N 41°44' W 070°38'0 0.0
2019-Aug-27 10:29N 41°44' W 070°38'0 0.0
2019-Aug-27 09:58N 41°44' W 070°38'0 0.0
2019-Aug-27 09:29N 41°44' W 070°38'0 0.0
2019-Aug-27 08:59N 41°44' W 070°38'0 0.0
2019-Aug-27 08:26N 41°44' W 070°38'0 0.0
2019-Aug-27 07:58N 41°44' W 070°38'0 0.0
2019-Aug-27 07:29N 41°44' W 070°38'0 0.0
2019-Aug-27 06:58N 41°44' W 070°38'0 0.0
2019-Aug-27 06:28N 41°44' W 070°38'0 0.0
2019-Aug-27 05:59N 41°44' W 070°38'0 0.0
2019-Aug-27 05:29N 41°44' W 070°38'0 0.0
2019-Aug-27 04:58N 41°44' W 070°38'0 0.0
2019-Aug-27 04:28N 41°44' W 070°38'0 0.0
2019-Aug-27 03:58N 41°44' W 070°38'0 0.0
2019-Aug-27 03:28N 41°44' W 070°38'0 0.0
2019-Aug-27 02:58N 41°44' W 070°38'0 0.0
2019-Aug-27 02:29N 41°44' W 070°38'0 0.0
2019-Aug-27 01:59N 41°44' W 070°38'0 0.0
2019-Aug-27 01:28N 41°44' W 070°38'0 0.0
2019-Aug-27 00:58N 41°44' W 070°38'0 0.0
2019-Aug-27 00:29N 41°44' W 070°38'0 0.0
2019-Aug-26 23:58N 41°44' W 070°38'0 0.0
2019-Aug-26 23:28N 41°44' W 070°38'0 0.0
2019-Aug-26 22:58N 41°44' W 070°38'0 0.0
2019-Aug-26 22:28N 41°44' W 070°38'0 0.0
2019-Aug-26 21:58N 41°44' W 070°38'0 0.0
2019-Aug-26 21:28N 41°44' W 070°38'0 0.0
2019-Aug-26 20:58N 41°44' W 070°38'0 0.0
2019-Aug-26 20:28N 41°44' W 070°38'0 0.0
2019-Aug-26 19:58N 41°44' W 070°38'0 0.0
2019-Aug-26 19:28N 41°44' W 070°38'0 0.0
2019-Aug-26 18:58N 41°44' W 070°38'0 0.0
2019-Aug-26 18:28N 41°44' W 070°38'0 0.0
2019-Aug-26 17:58N 41°44' W 070°38'0 0.0
2019-Aug-26 17:28N 41°44' W 070°38'0 0.0
2019-Aug-26 16:58N 41°44' W 070°38'0 0.0
2019-Aug-26 16:28N 41°44' W 070°38'0 0.0
2019-Aug-26 15:58N 41°44' W 070°38'0 0.0
2019-Aug-26 15:28N 41°44' W 070°38'0 0.0
2019-Aug-26 14:58N 41°44' W 070°38'0 0.0
2019-Aug-26 14:28N 41°44' W 070°38'0 0.0
2019-Aug-26 13:58N 41°44' W 070°38'0 0.0
2019-Aug-26 13:28N 41°44' W 070°38'0 0.0
2019-Aug-26 12:58N 41°44' W 070°38'0 0.0
2019-Aug-26 12:28N 41°44' W 070°38'0 0.0
2019-Aug-26 11:58N 41°44' W 070°38'0 0.0
2019-Aug-26 11:28N 41°44' W 070°38'0 0.0
2019-Aug-26 10:58N 41°44' W 070°38'0 0.0
2019-Aug-26 10:28N 41°44' W 070°38'0 0.0
2019-Aug-26 09:58N 41°44' W 070°38'0 0.0
2019-Aug-26 09:28N 41°44' W 070°38'0 0.0
2019-Aug-26 08:58N 41°44' W 070°38'0 0.0
2019-Aug-26 08:28N 41°44' W 070°38'0 0.0
2019-Aug-26 07:58N 41°44' W 070°38'0 0.0
2019-Aug-26 07:28N 41°44' W 070°38'0 0.0
2019-Aug-26 06:58N 41°44' W 070°38'0 0.0
2019-Aug-26 06:28N 41°44' W 070°38'0 0.0
2019-Aug-26 05:58N 41°44' W 070°38'0 0.0
2019-Aug-26 05:28N 41°44' W 070°38'0 0.0
2019-Aug-26 04:58N 41°44' W 070°38'0 0.0
2019-Aug-26 04:28N 41°44' W 070°38'0 0.0
2019-Aug-26 03:58N 41°44' W 070°38'0 0.0
2019-Aug-26 03:28N 41°44' W 070°38'0 0.0
2019-Aug-26 02:58N 41°44' W 070°38'0 0.0
2019-Aug-26 02:28N 41°44' W 070°38'0 0.0
2019-Aug-26 01:58N 41°44' W 070°38'0 0.0
2019-Aug-26 01:28N 41°44' W 070°38'0 0.0
2019-Aug-26 00:58N 41°44' W 070°38'0 0.0
2019-Aug-26 00:28N 41°44' W 070°38'0 0.0
2019-Aug-25 23:58N 41°44' W 070°38'0 0.0
2019-Aug-25 23:28N 41°44' W 070°38'0 0.0
2019-Aug-25 22:58N 41°44' W 070°38'0 0.0
2019-Aug-25 22:28N 41°44' W 070°38'0 0.0
2019-Aug-25 21:58N 41°44' W 070°38'0 0.0
2019-Aug-25 21:28N 41°44' W 070°38'0 0.0
2019-Aug-25 20:58N 41°44' W 070°38'0 0.0
2019-Aug-25 20:28N 41°44' W 070°38'0 0.0
2019-Aug-25 19:58N 41°44' W 070°38'0 0.0
2019-Aug-25 19:28N 41°44' W 070°38'0 0.0
2019-Aug-25 18:58N 41°44' W 070°38'0 0.0
2019-Aug-25 18:28N 41°44' W 070°38'0 0.0
2019-Aug-25 17:58N 41°44' W 070°38'0 0.0
2019-Aug-25 17:28N 41°44' W 070°38'0 0.0
2019-Aug-25 16:58N 41°44' W 070°38'0 0.0
2019-Aug-25 16:28N 41°44' W 070°38'0 0.0
2019-Aug-25 15:58N 41°44' W 070°38'0 0.0
2019-Aug-25 15:28N 41°44' W 070°38'0 0.0
2019-Aug-25 14:58N 41°44' W 070°38'0 0.0
2019-Aug-25 14:28N 41°44' W 070°38'0 0.0
2019-Aug-25 13:58N 41°44' W 070°38'0 0.0
2019-Aug-25 13:28N 41°44' W 070°38'0 0.0
2019-Aug-25 12:58N 41°44' W 070°38'0 0.0
2019-Aug-25 12:28N 41°44' W 070°38'0 0.0
2019-Aug-25 11:58N 41°44' W 070°38'0 0.0
2019-Aug-25 11:28N 41°44' W 070°38'0 0.0
2019-Aug-25 10:58N 41°44' W 070°38'0 0.0
2019-Aug-25 10:28N 41°44' W 070°38'0 0.0
2019-Aug-25 09:58N 41°44' W 070°38'0 0.0
2019-Aug-25 09:28N 41°44' W 070°38'0 0.0
2019-Aug-25 08:58N 41°44' W 070°38'0 0.0
2019-Aug-25 08:28N 41°44' W 070°38'0 0.0
2019-Aug-25 07:58N 41°44' W 070°38'0 0.0
2019-Aug-25 07:28N 41°44' W 070°38'0 0.0
2019-Aug-25 06:58N 41°44' W 070°38'0 0.0
2019-Aug-25 06:28N 41°44' W 070°38'0 0.0
2019-Aug-25 05:58N 41°44' W 070°38'0 0.0
2019-Aug-25 05:28N 41°44' W 070°38'0 0.0
2019-Aug-25 04:58N 41°44' W 070°38'0 0.0
2019-Aug-25 04:28N 41°44' W 070°38'0 0.0
2019-Aug-25 03:58N 41°44' W 070°38'0 0.0
2019-Aug-25 03:28N 41°44' W 070°38'0 0.0
2019-Aug-25 02:58N 41°44' W 070°38'0 0.0
2019-Aug-25 02:28N 41°44' W 070°38'0 0.0
2019-Aug-25 01:58N 41°44' W 070°38'0 0.0
2019-Aug-25 01:28N 41°44' W 070°38'0 0.0
2019-Aug-25 00:58N 41°44' W 070°38'0 0.0
2019-Aug-25 00:28N 41°44' W 070°38'0 0.0
2019-Aug-24 23:58N 41°44' W 070°38'0 0.0
2019-Aug-24 23:28N 41°44' W 070°38'0 0.0
2019-Aug-24 22:58N 41°44' W 070°38'0 0.0
2019-Aug-24 22:28N 41°44' W 070°38'0 0.0
2019-Aug-24 21:58N 41°44' W 070°38'0 0.0
2019-Aug-24 21:28N 41°44' W 070°38'0 0.0
2019-Aug-24 20:58N 41°44' W 070°38'0 0.0
2019-Aug-24 20:28N 41°44' W 070°38'0 0.0
2019-Aug-24 19:58N 41°44' W 070°38'0 0.0
2019-Aug-24 19:28N 41°44' W 070°38'0 0.0
2019-Aug-24 18:58N 41°44' W 070°38'0 0.0
2019-Aug-24 18:28N 41°44' W 070°38'0 0.0
2019-Aug-24 17:58N 41°44' W 070°38'0 0.0
2019-Aug-24 17:28N 41°44' W 070°38'0 0.0
2019-Aug-24 16:58N 41°44' W 070°38'0 0.0
2019-Aug-24 16:28N 41°44' W 070°38'0 0.0
2019-Aug-24 15:58N 41°44' W 070°38'0 0.0
2019-Aug-24 15:22N 41°44' W 070°38'0 0.0
2019-Aug-24 14:58N 41°44' W 070°38'0 0.0
2019-Aug-24 14:28N 41°44' W 070°38'0 0.0
2019-Aug-24 13:58N 41°44' W 070°38'0 0.0
2019-Aug-24 13:28N 41°44' W 070°38'0 0.0
2019-Aug-24 12:58N 41°44' W 070°38'0 0.0
2019-Aug-24 12:28N 41°44' W 070°38'0 0.0
2019-Aug-24 11:58N 41°44' W 070°38'0 0.0
2019-Aug-24 11:28N 41°44' W 070°38'0 0.0
2019-Aug-24 10:58N 41°44' W 070°38'0 0.0
2019-Aug-24 10:28N 41°44' W 070°38'0 0.0
2019-Aug-24 09:58N 41°44' W 070°38'0 0.0
2019-Aug-24 09:28N 41°44' W 070°38'0 0.0
2019-Aug-24 08:58N 41°44' W 070°38'0 0.0
2019-Aug-24 08:28N 41°44' W 070°38'0 0.0
2019-Aug-24 07:58N 41°44' W 070°38'0 0.0
2019-Aug-24 07:28N 41°44' W 070°38'0 0.0
2019-Aug-24 06:58N 41°44' W 070°38'0 0.0
2019-Aug-24 06:28N 41°44' W 070°38'0 0.0
2019-Aug-24 05:58N 41°44' W 070°38'0 0.0
2019-Aug-24 05:28N 41°44' W 070°38'0 0.0
2019-Aug-24 04:58N 41°44' W 070°38'0 0.0
2019-Aug-24 04:28N 41°44' W 070°38'0 0.0
2019-Aug-24 03:58N 41°44' W 070°38'0 0.0
2019-Aug-24 03:28N 41°44' W 070°38'0 0.0
2019-Aug-24 02:58N 41°44' W 070°38'0 0.0
2019-Aug-24 02:28N 41°44' W 070°38'0 0.0
2019-Aug-24 01:58N 41°44' W 070°38'0 0.0
2019-Aug-24 01:28N 41°44' W 070°38'0 0.0
2019-Aug-24 00:58N 41°44' W 070°38'0 0.0
2019-Aug-24 00:28N 41°44' W 070°38'0 0.0
2019-Aug-23 23:58N 41°44' W 070°38'0 0.0
2019-Aug-23 23:28N 41°44' W 070°38'0 0.0
2019-Aug-23 22:58N 41°44' W 070°38'0 0.0
2019-Aug-23 22:28N 41°44' W 070°38'0 0.0
2019-Aug-23 21:58N 41°44' W 070°38'0 0.0
2019-Aug-23 21:28N 41°44' W 070°38'0 0.0
2019-Aug-23 20:58N 41°44' W 070°38'0 0.0
2019-Aug-23 20:28N 41°44' W 070°38'0 0.0
2019-Aug-23 19:58N 41°44' W 070°38'0 0.0
2019-Aug-23 19:28N 41°44' W 070°38'0 0.0
2019-Aug-23 18:58N 41°44' W 070°38'0 0.0
2019-Aug-23 18:28N 41°44' W 070°38'0 0.0
2019-Aug-23 17:55N 41°44' W 070°38'0 0.0
2019-Aug-23 17:28N 41°44' W 070°38'0 0.0
2019-Aug-23 16:58N 41°44' W 070°38'0 0.0
2019-Aug-23 16:28N 41°44' W 070°38'0 0.0
2019-Aug-23 15:58N 41°44' W 070°38'0 0.0
2019-Aug-23 15:28N 41°44' W 070°38'0 0.0
2019-Aug-23 14:58N 41°44' W 070°38'0 0.0
2019-Aug-23 14:28N 41°44' W 070°38'0 0.0
2019-Aug-23 13:58N 41°44' W 070°38'0 0.0
2019-Aug-23 13:28N 41°44' W 070°38'0 0.0
2019-Aug-23 12:58N 41°44' W 070°38'0 0.0
2019-Aug-23 12:28N 41°44' W 070°38'0 0.0
2019-Aug-23 11:58N 41°44' W 070°38'0 0.0
2019-Aug-23 11:28N 41°44' W 070°38'0 0.0
2019-Aug-23 10:58N 41°44' W 070°38'0 0.0
2019-Aug-23 10:28N 41°44' W 070°38'0 0.0
2019-Aug-23 09:58N 41°44' W 070°38'0 0.0
2019-Aug-23 09:28N 41°44' W 070°38'0 0.0
2019-Aug-23 08:58N 41°44' W 070°38'0 0.0
2019-Aug-23 08:28N 41°44' W 070°38'0 0.0
2019-Aug-23 07:58N 41°44' W 070°38'0 0.0
2019-Aug-23 07:28N 41°44' W 070°38'0 0.0
2019-Aug-23 06:58N 41°44' W 070°38'0 0.0
2019-Aug-23 06:28N 41°44' W 070°38'0 0.0
2019-Aug-23 05:58N 41°44' W 070°38'0 0.0
2019-Aug-23 05:28N 41°44' W 070°38'0 0.0
2019-Aug-23 04:58N 41°44' W 070°38'0 0.0
2019-Aug-23 04:28N 41°44' W 070°38'0 0.0
2019-Aug-23 03:58N 41°44' W 070°38'0 0.0
2019-Aug-23 03:28N 41°44' W 070°38'0 0.0
2019-Aug-23 02:58N 41°44' W 070°38'0 0.0
2019-Aug-23 02:28N 41°44' W 070°38'0 0.0
2019-Aug-23 01:58N 41°44' W 070°38'0 0.0
2019-Aug-23 01:28N 41°44' W 070°38'0 0.0
2019-Aug-23 00:58N 41°44' W 070°38'0 0.0
2019-Aug-23 00:28N 41°44' W 070°38'0 0.0
2019-Aug-22 23:58N 41°44' W 070°38'0 0.0
2019-Aug-22 23:28N 41°44' W 070°38'0 0.0
2019-Aug-22 22:58N 41°44' W 070°38'0 0.0
2019-Aug-22 22:28N 41°44' W 070°38'0 0.0
2019-Aug-22 21:58N 41°44' W 070°38'0 0.0
2019-Aug-22 21:28N 41°44' W 070°38'0 0.0
2019-Aug-22 20:58N 41°44' W 070°38'0 0.0
2019-Aug-22 20:28N 41°44' W 070°38'0 0.0
2019-Aug-22 19:58N 41°44' W 070°38'0 0.0
2019-Aug-22 19:28N 41°44' W 070°38'0 0.0
2019-Aug-22 18:58N 41°44' W 070°38'0 0.0
2019-Aug-22 18:28N 41°44' W 070°38'0 0.0
2019-Aug-22 17:58N 41°44' W 070°38'0 0.0
2019-Aug-22 17:28N 41°44' W 070°38'0 0.0
2019-Aug-22 16:58N 41°44' W 070°38'0 0.0
2019-Aug-22 16:28N 41°44' W 070°38'0 0.0
2019-Aug-22 15:58N 41°44' W 070°38'0 0.0
2019-Aug-22 15:28N 41°44' W 070°38'0 0.0
2019-Aug-22 14:58N 41°44' W 070°38'0 0.0
2019-Aug-22 14:28N 41°44' W 070°38'0 0.0
2019-Aug-22 13:58N 41°44' W 070°38'0 0.0
2019-Aug-22 13:28N 41°44' W 070°38'0 0.0
2019-Aug-22 12:58N 41°44' W 070°38'0 0.0
2019-Aug-22 12:28N 41°44' W 070°38'0 0.0
2019-Aug-22 11:58N 41°44' W 070°38'0 0.0
2019-Aug-22 11:28N 41°44' W 070°38'0 0.0
2019-Aug-22 10:58N 41°44' W 070°38'0 0.0
2019-Aug-22 10:28N 41°44' W 070°38'0 0.0
2019-Aug-22 09:58N 41°44' W 070°38'0 0.0
2019-Aug-22 09:28N 41°44' W 070°38'0 0.0
2019-Aug-22 08:58N 41°44' W 070°38'0 0.0
2019-Aug-22 08:28N 41°44' W 070°38'0 0.0
2019-Aug-22 07:58N 41°44' W 070°38'0 0.0
2019-Aug-22 07:28N 41°44' W 070°38'0 0.0
2019-Aug-22 06:58N 41°44' W 070°38'0 0.0
2019-Aug-22 06:28N 41°44' W 070°38'0 0.0
2019-Aug-22 05:58N 41°44' W 070°38'0 0.0
2019-Aug-22 05:28N 41°44' W 070°38'0 0.0
2019-Aug-22 04:58N 41°44' W 070°38'0 0.0
2019-Aug-22 04:28N 41°44' W 070°38'0 0.0
2019-Aug-22 03:58N 41°44' W 070°38'0 0.0
2019-Aug-22 03:28N 41°44' W 070°38'0 0.0
2019-Aug-22 02:58N 41°44' W 070°38'0 0.0
2019-Aug-22 02:28N 41°44' W 070°38'0 0.0
2019-Aug-22 01:58N 41°44' W 070°38'0 0.0
2019-Aug-22 01:28N 41°44' W 070°38'0 0.0
2019-Aug-22 00:58N 41°44' W 070°38'0 0.0
2019-Aug-22 00:28N 41°44' W 070°38'0 0.0
2019-Aug-21 23:58N 41°44' W 070°38'0 0.0
2019-Aug-21 23:28N 41°44' W 070°38'0 0.0
2019-Aug-21 22:58N 41°44' W 070°38'0 0.0
2019-Aug-21 22:28N 41°44' W 070°38'0 0.0
2019-Aug-21 21:58N 41°44' W 070°38'0 0.0
2019-Aug-21 21:28N 41°44' W 070°38'0 0.0
2019-Aug-21 20:58N 41°44' W 070°38'0 0.0
2019-Aug-21 20:28N 41°44' W 070°38'0 0.0
2019-Aug-21 19:58N 41°44' W 070°38'0 0.0
2019-Aug-21 19:22N 41°44' W 070°38'0 0.0
2019-Aug-21 18:58N 41°44' W 070°38'0 0.0
2019-Aug-21 18:28N 41°44' W 070°38'0 0.0
2019-Aug-21 17:58N 41°44' W 070°38'0 0.0
2019-Aug-21 17:28N 41°44' W 070°38'0 0.0
2019-Aug-21 16:52N 41°44' W 070°38'0 0.0
2019-Aug-21 16:28N 41°44' W 070°38'0 0.0
2019-Aug-21 15:58N 41°44' W 070°38'0 0.0
2019-Aug-21 15:28N 41°44' W 070°38'0 0.0
2019-Aug-21 14:55N 41°44' W 070°38'0 0.0
2019-Aug-21 14:28N 41°44' W 070°38'0 0.0
2019-Aug-21 13:58N 41°44' W 070°38'0 0.0
2019-Aug-21 13:28N 41°44' W 070°38'0 0.0
2019-Aug-21 12:55N 41°44' W 070°38'0 0.0
2019-Aug-21 12:28N 41°44' W 070°38'0 0.0
2019-Aug-21 11:58N 41°44' W 070°38'0 0.0
2019-Aug-21 11:28N 41°44' W 070°38'0 0.0
2019-Aug-21 10:58N 41°44' W 070°38'0 0.0
2019-Aug-21 10:28N 41°44' W 070°38'0 0.0
2019-Aug-21 09:58N 41°44' W 070°38'0 0.0
2019-Aug-21 09:28N 41°44' W 070°38'0 0.0
2019-Aug-21 08:55N 41°44' W 070°38'0 0.0
2019-Aug-21 08:28N 41°44' W 070°38'0 0.0
2019-Aug-21 07:58N 41°44' W 070°38'0 0.0
2019-Aug-21 07:28N 41°44' W 070°38'0 0.0
2019-Aug-21 06:58N 41°44' W 070°38'0 0.0
2019-Aug-21 06:28N 41°44' W 070°38'0 0.0
2019-Aug-21 05:58N 41°44' W 070°38'0 0.0
2019-Aug-21 05:28N 41°44' W 070°38'0 0.0
2019-Aug-21 04:58N 41°44' W 070°38'0 0.0
2019-Aug-21 04:28N 41°44' W 070°38'0 0.0
2019-Aug-21 03:58N 41°44' W 070°38'0 0.0
2019-Aug-21 03:28N 41°44' W 070°38'0 0.0
2019-Aug-21 02:58N 41°44' W 070°38'0 0.0
2019-Aug-21 02:28N 41°44' W 070°38'0 0.0
2019-Aug-21 01:58N 41°44' W 070°38'0 0.0
2019-Aug-21 01:28N 41°44' W 070°38'0 0.0
2019-Aug-21 00:58N 41°44' W 070°38'0 0.0
2019-Aug-21 00:28N 41°44' W 070°38'0 0.0
2019-Aug-20 23:58N 41°44' W 070°38'0 0.0
2019-Aug-20 23:28N 41°44' W 070°38'0 0.0
2019-Aug-20 22:58N 41°44' W 070°38'0 0.0
2019-Aug-20 22:28N 41°44' W 070°38'0 0.0
2019-Aug-20 21:58N 41°44' W 070°38'0 0.0
2019-Aug-20 21:28N 41°44' W 070°38'0 0.0
2019-Aug-20 20:58N 41°44' W 070°38'0 0.0
2019-Aug-20 20:28N 41°44' W 070°38'0 0.0
2019-Aug-20 19:52N 41°44' W 070°38'0 0.0
2019-Aug-20 19:28N 41°44' W 070°38'0 0.0
2019-Aug-20 18:58N 41°44' W 070°38'0 0.0
2019-Aug-20 18:28N 41°44' W 070°38'0 0.0
2019-Aug-20 17:58N 41°44' W 070°38'0 0.0
2019-Aug-20 17:28N 41°44' W 070°38'0 0.0
2019-Aug-20 16:58N 41°44' W 070°38'0 0.0
2019-Aug-20 16:28N 41°44' W 070°38'0 0.0
2019-Aug-20 15:58N 41°44' W 070°38'0 0.0
2019-Aug-20 15:28N 41°44' W 070°38'0 0.0
2019-Aug-20 14:58N 41°44' W 070°38'0 0.0
2019-Aug-20 14:28N 41°44' W 070°38'0 0.0
2019-Aug-20 13:58N 41°44' W 070°38'0 0.0
2019-Aug-20 13:28N 41°44' W 070°38'0 0.0
2019-Aug-20 12:58N 41°44' W 070°38'0 0.0
2019-Aug-20 12:28N 41°44' W 070°38'  

Dump ship's entire track history